Flugplatz Hodenhagen

Für EDVH sind keine METAR/TAF Berichte vorhanden.
Es werden die Flugwettermeldungen vom Flugplatz Celle Airport in 33 km Entfernung angezeigt.

Bericht für ETHC

vom 07.12. um 18:20 UTC

Wind 7 kt aus 120°

Sichtweite 7000 m

aufgebrochene Bewölkung in 1700 ft

aufgebrochene Bewölkung in 4600 ft

Temperatur 3.0°C

Taupunkt 2.0°C

Luftfeuchtigkeit 93%

Luftdruck 1007 hPa

ETHC 071820Z 12007KT 7000 BKN017 BKN046 03/02 Q1007 WHT

Prognose für ETHC

vom 07.12. um 14:30 UTC

Zwischen 15:00 UTC und 00:00 UTC

Wind 8 kt aus 120°

Sichtweite 10 km oder mehr

keine signifikanten Wettererscheinungen

aufgebrochene Bewölkung in 1200 ft


Zwischen 15:00 UTC und 18:00 UTC zeitweise

Wind 6 kt aus 130°

Sichtweite 8000 m

schwacher Regen

aufgebrochene Bewölkung in 800 ft


Zwischen 18:00 UTC und 00:00 UTC zeitweise

Wind 10 kt aus 110°

Sichtweite 5000 m

feuchter Dunst

aufgebrochene Bewölkung in 1500 ft

aufgebrochene Bewölkung in 3000 ft

TAF ETHC 071430Z 0715/0724 12008KT 9999 NSW BKN012 TEMPO 0715/0718 13006KT 8000 -RA BKN008 TEMPO 0718/0724 11010KT 5000 BR BKN015 BKN030
Impressum